sensor_id;sensor_type;location;lat;lon;timestamp;P1;durP1;ratioP1;P2;durP2;ratioP2
51800;SDS011;37855;53.204;6.568;2022-07-23T00:00:48;8.73;;;2.80;;
51800;SDS011;37855;53.204;6.568;2022-07-23T00:03:13;9.38;;;2.97;;
51800;SDS011;37855;53.204;6.568;2022-07-23T00:05:39;8.88;;;3.10;;
51800;SDS011;37855;53.204;6.568;2022-07-23T00:08:06;6.72;;;3.03;;
51800;SDS011;37855;53.204;6.568;2022-07-23T00:10:32;5.85;;;3.00;;
51800;SDS011;37855;53.204;6.568;2022-07-23T00:12:58;7.60;;;3.22;;
51800;SDS011;37855;53.204;6.568;2022-07-23T00:15:24;10.98;;;3.60;;
51800;SDS011;37855;53.204;6.568;2022-07-23T00:17:50;7.22;;;3.22;;
51800;SDS011;37855;53.204;6.568;2022-07-23T00:20:17;8.57;;;3.83;;
51800;SDS011;37855;53.204;6.568;2022-07-23T00:22:49;6.82;;;3.40;;
51800;SDS011;37855;53.204;6.568;2022-07-23T00:25:15;8.40;;;3.55;;
51800;SDS011;37855;53.204;6.568;2022-07-23T00:27:41;7.72;;;3.63;;
51800;SDS011;37855;53.204;6.568;2022-07-23T00:30:07;7.68;;;3.80;;
51800;SDS011;37855;53.204;6.568;2022-07-23T00:32:44;10.93;;;4.40;;
51800;SDS011;37855;53.204;6.568;2022-07-23T00:35:12;8.98;;;3.90;;
51800;SDS011;37855;53.204;6.568;2022-07-23T00:37:38;6.97;;;3.95;;
51800;SDS011;37855;53.204;6.568;2022-07-23T00:40:04;7.53;;;4.07;;
51800;SDS011;37855;53.204;6.568;2022-07-23T00:42:34;7.40;;;3.92;;
51800;SDS011;37855;53.204;6.568;2022-07-23T00:45:00;7.47;;;4.05;;
51800;SDS011;37855;53.204;6.568;2022-07-23T00:47:27;10.57;;;3.90;;
51800;SDS011;37855;53.204;6.568;2022-07-23T00:49:52;9.15;;;4.10;;
51800;SDS011;37855;53.204;6.568;2022-07-23T00:52:18;9.32;;;3.95;;
51800;SDS011;37855;53.204;6.568;2022-07-23T00:54:44;10.77;;;4.38;;
51800;SDS011;37855;53.204;6.568;2022-07-23T00:57:09;9.77;;;4.25;;
51800;SDS011;37855;53.204;6.568;2022-07-23T00:59:35;11.65;;;4.38;;
51800;SDS011;37855;53.204;6.568;2022-07-23T01:02:03;8.05;;;4.20;;
51800;SDS011;37855;53.204;6.568;2022-07-23T01:04:29;11.40;;;4.35;;
51800;SDS011;37855;53.204;6.568;2022-07-23T01:06:55;9.75;;;4.50;;
51800;SDS011;37855;53.204;6.568;2022-07-23T01:09:21;13.23;;;4.68;;
51800;SDS011;37855;53.204;6.568;2022-07-23T01:11:47;8.35;;;4.30;;
51800;SDS011;37855;53.204;6.568;2022-07-23T01:14:13;10.77;;;4.25;;
51800;SDS011;37855;53.204;6.568;2022-07-23T01:16:41;8.68;;;4.55;;
51800;SDS011;37855;53.204;6.568;2022-07-23T01:19:08;9.13;;;4.32;;
51800;SDS011;37855;53.204;6.568;2022-07-23T01:21:35;8.32;;;4.35;;
51800;SDS011;37855;53.204;6.568;2022-07-23T01:24:02;11.60;;;5.22;;
51800;SDS011;37855;53.204;6.568;2022-07-23T01:26:27;10.20;;;4.88;;
51800;SDS011;37855;53.204;6.568;2022-07-23T01:28:53;14.23;;;4.25;;
51800;SDS011;37855;53.204;6.568;2022-07-23T01:31:19;7.70;;;3.70;;
51800;SDS011;37855;53.204;6.568;2022-07-23T01:33:45;7.55;;;3.75;;
51800;SDS011;37855;53.204;6.568;2022-07-23T01:36:10;7.90;;;3.67;;
51800;SDS011;37855;53.204;6.568;2022-07-23T01:38:38;10.68;;;3.85;;
51800;SDS011;37855;53.204;6.568;2022-07-23T01:41:04;9.90;;;4.10;;
51800;SDS011;37855;53.204;6.568;2022-07-23T01:43:30;11.27;;;4.10;;
51800;SDS011;37855;53.204;6.568;2022-07-23T01:45:55;6.90;;;4.03;;
51800;SDS011;37855;53.204;6.568;2022-07-23T01:48:21;7.88;;;4.20;;
51800;SDS011;37855;53.204;6.568;2022-07-23T01:50:47;8.95;;;3.90;;
51800;SDS011;37855;53.204;6.568;2022-07-23T01:53:13;6.38;;;3.92;;
51800;SDS011;37855;53.204;6.568;2022-07-23T01:55:39;10.10;;;4.38;;
51800;SDS011;37855;53.204;6.568;2022-07-23T01:58:06;11.95;;;4.28;;
51800;SDS011;37855;53.204;6.568;2022-07-23T02:00:31;15.25;;;4.38;;
51800;SDS011;37855;53.204;6.568;2022-07-23T02:02:57;7.85;;;4.10;;
51800;SDS011;37855;53.204;6.568;2022-07-23T02:05:24;9.77;;;4.13;;
51800;SDS011;37855;53.204;6.568;2022-07-23T02:07:50;12.43;;;4.60;;
51800;SDS011;37855;53.204;6.568;2022-07-23T02:10:17;7.75;;;4.60;;
51800;SDS011;37855;53.204;6.568;2022-07-23T02:12:43;9.25;;;4.30;;
51800;SDS011;37855;53.204;6.568;2022-07-23T02:15:08;12.55;;;4.90;;
51800;SDS011;37855;53.204;6.568;2022-07-23T02:17:34;8.27;;;4.63;;
51800;SDS011;37855;53.204;6.568;2022-07-23T02:20:00;9.75;;;5.00;;
51800;SDS011;37855;53.204;6.568;2022-07-23T02:22:26;14.20;;;5.18;;
51800;SDS011;37855;53.204;6.568;2022-07-23T02:24:51;10.00;;;4.50;;
51800;SDS011;37855;53.204;6.568;2022-07-23T02:27:20;9.60;;;4.57;;
51800;SDS011;37855;53.204;6.568;2022-07-23T02:29:46;11.45;;;5.00;;
51800;SDS011;37855;53.204;6.568;2022-07-23T02:32:12;10.88;;;4.63;;
51800;SDS011;37855;53.204;6.568;2022-07-23T02:34:37;9.45;;;4.65;;
51800;SDS011;37855;53.204;6.568;2022-07-23T02:37:03;10.93;;;4.80;;
51800;SDS011;37855;53.204;6.568;2022-07-23T02:39:30;13.73;;;5.25;;
51800;SDS011;37855;53.204;6.568;2022-07-23T02:41:56;10.00;;;4.97;;
51800;SDS011;37855;53.204;6.568;2022-07-23T02:44:22;10.20;;;4.93;;
51800;SDS011;37855;53.204;6.568;2022-07-23T02:46:48;10.13;;;5.43;;
51800;SDS011;37855;53.204;6.568;2022-07-23T02:49:14;11.52;;;4.93;;
51800;SDS011;37855;53.204;6.568;2022-07-23T02:51:39;8.43;;;4.88;;
51800;SDS011;37855;53.204;6.568;2022-07-23T02:54:05;10.13;;;5.15;;
51800;SDS011;37855;53.204;6.568;2022-07-23T02:56:31;14.35;;;5.38;;
51800;SDS011;37855;53.204;6.568;2022-07-23T02:58:58;12.70;;;5.18;;
51800;SDS011;37855;53.204;6.568;2022-07-23T03:01:23;9.10;;;5.10;;
51800;SDS011;37855;53.204;6.568;2022-07-23T03:03:49;10.32;;;4.88;;
51800;SDS011;37855;53.204;6.568;2022-07-23T03:06:14;7.05;;;4.68;;
51800;SDS011;37855;53.204;6.568;2022-07-23T03:08:40;11.10;;;5.03;;
51800;SDS011;37855;53.204;6.568;2022-07-23T03:11:09;10.18;;;4.95;;
51800;SDS011;37855;53.204;6.568;2022-07-23T03:13:38;10.05;;;4.85;;
51800;SDS011;37855;53.204;6.568;2022-07-23T03:16:04;10.13;;;5.07;;
51800;SDS011;37855;53.204;6.568;2022-07-23T03:18:30;14.68;;;4.75;;
51800;SDS011;37855;53.204;6.568;2022-07-23T03:20:57;9.50;;;4.53;;
51800;SDS011;37855;53.204;6.568;2022-07-23T03:23:23;8.68;;;4.60;;
51800;SDS011;37855;53.204;6.568;2022-07-23T03:25:48;9.77;;;4.90;;
51800;SDS011;37855;53.204;6.568;2022-07-23T03:28:14;10.05;;;4.65;;
51800;SDS011;37855;53.204;6.568;2022-07-23T03:30:41;9.88;;;4.70;;
51800;SDS011;37855;53.204;6.568;2022-07-23T03:33:08;11.77;;;5.13;;
51800;SDS011;37855;53.204;6.568;2022-07-23T03:35:34;9.55;;;4.43;;
51800;SDS011;37855;53.204;6.568;2022-07-23T03:37:59;7.95;;;4.40;;
51800;SDS011;37855;53.204;6.568;2022-07-23T03:40:27;9.07;;;4.25;;
51800;SDS011;37855;53.204;6.568;2022-07-23T03:42:53;6.07;;;3.75;;
51800;SDS011;37855;53.204;6.568;2022-07-23T03:45:19;9.38;;;4.85;;
51800;SDS011;37855;53.204;6.568;2022-07-23T03:47:44;11.10;;;5.00;;
51800;SDS011;37855;53.204;6.568;2022-07-23T03:50:10;9.82;;;4.57;;
51800;SDS011;37855;53.204;6.568;2022-07-23T03:52:36;9.95;;;4.47;;
51800;SDS011;37855;53.204;6.568;2022-07-23T03:55:02;9.23;;;4.43;;
51800;SDS011;37855;53.204;6.568;2022-07-23T03:57:31;9.57;;;4.20;;
51800;SDS011;37855;53.204;6.568;2022-07-23T03:59:56;11.05;;;4.32;;
51800;SDS011;37855;53.204;6.568;2022-07-23T04:02:22;8.82;;;4.38;;
51800;SDS011;37855;53.204;6.568;2022-07-23T04:04:48;7.32;;;4.35;;
51800;SDS011;37855;53.204;6.568;2022-07-23T04:07:14;7.90;;;3.83;;
51800;SDS011;37855;53.204;6.568;2022-07-23T04:09:40;8.68;;;4.40;;
51800;SDS011;37855;53.204;6.568;2022-07-23T04:12:07;11.45;;;4.60;;
51800;SDS011;37855;53.204;6.568;2022-07-23T04:14:33;10.27;;;4.47;;
51800;SDS011;37855;53.204;6.568;2022-07-23T04:16:58;10.82;;;4.35;;
51800;SDS011;37855;53.204;6.568;2022-07-23T04:19:24;9.30;;;3.72;;
51800;SDS011;37855;53.204;6.568;2022-07-23T04:21:50;9.88;;;4.13;;
51800;SDS011;37855;53.204;6.568;2022-07-23T04:24:16;10.00;;;4.40;;
51800;SDS011;37855;53.204;6.568;2022-07-23T04:26:42;8.13;;;4.38;;
51800;SDS011;37855;53.204;6.568;2022-07-23T04:29:09;7.65;;;3.88;;
51800;SDS011;37855;53.204;6.568;2022-07-23T04:31:35;9.25;;;3.75;;
51800;SDS011;37855;53.204;6.568;2022-07-23T04:34:01;7.65;;;3.55;;
51800;SDS011;37855;53.204;6.568;2022-07-23T04:36:26;8.82;;;3.63;;
51800;SDS011;37855;53.204;6.568;2022-07-23T04:38:54;7.30;;;3.67;;
51800;SDS011;37855;53.204;6.568;2022-07-23T04:41:19;8.02;;;3.83;;
51800;SDS011;37855;53.204;6.568;2022-07-23T04:43:45;8.48;;;3.58;;
51800;SDS011;37855;53.204;6.568;2022-07-23T04:46:14;7.90;;;3.53;;
51800;SDS011;37855;53.204;6.568;2022-07-23T04:48:40;7.18;;;3.83;;
51800;SDS011;37855;53.204;6.568;2022-07-23T04:51:07;21.35;;;4.47;;
51800;SDS011;37855;53.204;6.568;2022-07-23T04:53:33;9.10;;;3.65;;
51800;SDS011;37855;53.204;6.568;2022-07-23T04:55:58;6.38;;;3.20;;
51800;SDS011;37855;53.204;6.568;2022-07-23T04:58:25;7.68;;;3.70;;
51800;SDS011;37855;53.204;6.568;2022-07-23T05:00:51;9.07;;;3.78;;
51800;SDS011;37855;53.204;6.568;2022-07-23T05:03:17;10.50;;;3.65;;
51800;SDS011;37855;53.204;6.568;2022-07-23T05:05:44;7.70;;;3.70;;
51800;SDS011;37855;53.204;6.568;2022-07-23T05:08:09;8.23;;;3.47;;
51800;SDS011;37855;53.204;6.568;2022-07-23T05:10:35;8.07;;;3.67;;
51800;SDS011;37855;53.204;6.568;2022-07-23T05:13:01;9.05;;;3.50;;
51800;SDS011;37855;53.204;6.568;2022-07-23T05:15:27;6.18;;;3.13;;
51800;SDS011;37855;53.204;6.568;2022-07-23T05:17:52;5.88;;;2.90;;
51800;SDS011;37855;53.204;6.568;2022-07-23T05:20:18;8.15;;;3.03;;
51800;SDS011;37855;53.204;6.568;2022-07-23T05:22:44;9.55;;;3.33;;
51800;SDS011;37855;53.204;6.568;2022-07-23T05:25:09;5.28;;;2.60;;
51800;SDS011;37855;53.204;6.568;2022-07-23T05:27:35;6.70;;;2.50;;
51800;SDS011;37855;53.204;6.568;2022-07-23T05:30:01;5.78;;;2.42;;
51800;SDS011;37855;53.204;6.568;2022-07-23T05:32:26;5.28;;;2.40;;
51800;SDS011;37855;53.204;6.568;2022-07-23T05:34:53;7.25;;;2.60;;
51800;SDS011;37855;53.204;6.568;2022-07-23T05:37:19;6.78;;;2.58;;
51800;SDS011;37855;53.204;6.568;2022-07-23T05:39:44;8.45;;;3.00;;
51800;SDS011;37855;53.204;6.568;2022-07-23T05:42:10;11.00;;;2.75;;
51800;SDS011;37855;53.204;6.568;2022-07-23T05:44:36;7.45;;;2.90;;
51800;SDS011;37855;53.204;6.568;2022-07-23T05:47:01;7.75;;;2.97;;
51800;SDS011;37855;53.204;6.568;2022-07-23T05:49:28;7.22;;;3.22;;
51800;SDS011;37855;53.204;6.568;2022-07-23T05:51:53;8.05;;;3.33;;
51800;SDS011;37855;53.204;6.568;2022-07-23T05:54:19;7.45;;;2.67;;
51800;SDS011;37855;53.204;6.568;2022-07-23T05:56:45;6.38;;;2.78;;
51800;SDS011;37855;53.204;6.568;2022-07-23T05:59:10;5.75;;;2.78;;
51800;SDS011;37855;53.204;6.568;2022-07-23T06:01:38;5.43;;;2.50;;
51800;SDS011;37855;53.204;6.568;2022-07-23T06:04:03;9.10;;;2.65;;
51800;SDS011;37855;53.204;6.568;2022-07-23T06:06:29;6.10;;;2.88;;
51800;SDS011;37855;53.204;6.568;2022-07-23T06:08:54;8.05;;;2.70;;
51800;SDS011;37855;53.204;6.568;2022-07-23T06:11:20;5.40;;;2.97;;
51800;SDS011;37855;53.204;6.568;2022-07-23T06:13:46;5.95;;;2.53;;
51800;SDS011;37855;53.204;6.568;2022-07-23T06:16:11;8.52;;;2.53;;
51800;SDS011;37855;53.204;6.568;2022-07-23T06:18:37;4.55;;;2.35;;
51800;SDS011;37855;53.204;6.568;2022-07-23T06:21:02;7.03;;;2.58;;
51800;SDS011;37855;53.204;6.568;2022-07-23T06:23:28;4.68;;;2.50;;
51800;SDS011;37855;53.204;6.568;2022-07-23T06:25:54;5.78;;;2.22;;
51800;SDS011;37855;53.204;6.568;2022-07-23T06:28:19;6.50;;;2.55;;
51800;SDS011;37855;53.204;6.568;2022-07-23T06:30:45;4.70;;;2.70;;
51800;SDS011;37855;53.204;6.568;2022-07-23T06:33:13;6.32;;;2.30;;
51800;SDS011;37855;53.204;6.568;2022-07-23T06:35:39;6.90;;;2.35;;
51800;SDS011;37855;53.204;6.568;2022-07-23T06:38:04;5.93;;;2.10;;
51800;SDS011;37855;53.204;6.568;2022-07-23T06:40:30;6.20;;;2.28;;
51800;SDS011;37855;53.204;6.568;2022-07-23T06:42:55;5.20;;;2.28;;
51800;SDS011;37855;53.204;6.568;2022-07-23T06:45:21;5.55;;;2.47;;
51800;SDS011;37855;53.204;6.568;2022-07-23T06:47:47;8.82;;;2.60;;
51800;SDS011;37855;53.204;6.568;2022-07-23T06:50:13;8.93;;;2.55;;
51800;SDS011;37855;53.204;6.568;2022-07-23T06:52:39;4.00;;;2.30;;
51800;SDS011;37855;53.204;6.568;2022-07-23T06:55:04;5.30;;;2.50;;
51800;SDS011;37855;53.204;6.568;2022-07-23T06:57:30;5.40;;;2.28;;
51800;SDS011;37855;53.204;6.568;2022-07-23T06:59:56;5.32;;;2.33;;
51800;SDS011;37855;53.204;6.568;2022-07-23T07:02:21;5.38;;;2.42;;
51800;SDS011;37855;53.204;6.568;2022-07-23T07:04:47;6.25;;;2.15;;
51800;SDS011;37855;53.204;6.568;2022-07-23T07:07:13;6.72;;;2.20;;
51800;SDS011;37855;53.204;6.568;2022-07-23T07:09:39;4.97;;;2.08;;
51800;SDS011;37855;53.204;6.568;2022-07-23T07:12:05;4.07;;;1.65;;
51800;SDS011;37855;53.204;6.568;2022-07-23T07:14:30;2.65;;;1.35;;
51800;SDS011;37855;53.204;6.568;2022-07-23T07:16:56;2.60;;;1.23;;
51800;SDS011;37855;53.204;6.568;2022-07-23T07:19:22;6.07;;;1.17;;
51800;SDS011;37855;53.204;6.568;2022-07-23T07:21:47;3.08;;;1.02;;
51800;SDS011;37855;53.204;6.568;2022-07-23T07:24:13;3.13;;;0.88;;
51800;SDS011;37855;53.204;6.568;2022-07-23T07:26:38;2.05;;;0.80;;
51800;SDS011;37855;53.204;6.568;2022-07-23T07:29:04;2.70;;;0.85;;
51800;SDS011;37855;53.204;6.568;2022-07-23T07:31:30;3.45;;;1.02;;
51800;SDS011;37855;53.204;6.568;2022-07-23T07:33:56;4.68;;;0.60;;
51800;SDS011;37855;53.204;6.568;2022-07-23T07:36:22;1.58;;;0.60;;
51800;SDS011;37855;53.204;6.568;2022-07-23T07:38:48;2.92;;;0.57;;
51800;SDS011;37855;53.204;6.568;2022-07-23T07:41:14;1.25;;;0.60;;
51800;SDS011;37855;53.204;6.568;2022-07-23T07:43:41;3.70;;;0.90;;
51800;SDS011;37855;53.204;6.568;2022-07-23T07:46:07;0.93;;;0.70;;
51800;SDS011;37855;53.204;6.568;2022-07-23T07:48:39;2.58;;;0.70;;
51800;SDS011;37855;53.204;6.568;2022-07-23T07:51:04;2.90;;;0.70;;
51800;SDS011;37855;53.204;6.568;2022-07-23T07:53:30;2.33;;;0.50;;
51800;SDS011;37855;53.204;6.568;2022-07-23T07:55:56;1.60;;;0.60;;
51800;SDS011;37855;53.204;6.568;2022-07-23T07:58:22;1.70;;;0.57;;
51800;SDS011;37855;53.204;6.568;2022-07-23T08:00:47;2.35;;;0.60;;
51800;SDS011;37855;53.204;6.568;2022-07-23T08:03:13;1.25;;;0.40;;
51800;SDS011;37855;53.204;6.568;2022-07-23T08:05:39;2.30;;;0.73;;
51800;SDS011;37855;53.204;6.568;2022-07-23T08:08:07;3.03;;;0.70;;
51800;SDS011;37855;53.204;6.568;2022-07-23T08:10:34;1.88;;;0.60;;
51800;SDS011;37855;53.204;6.568;2022-07-23T08:13:00;5.72;;;0.80;;
51800;SDS011;37855;53.204;6.568;2022-07-23T08:15:28;1.55;;;0.60;;
51800;SDS011;37855;53.204;6.568;2022-07-23T08:17:54;5.15;;;0.80;;
51800;SDS011;37855;53.204;6.568;2022-07-23T08:20:22;3.42;;;0.60;;
51800;SDS011;37855;53.204;6.568;2022-07-23T08:22:59;2.75;;;0.70;;
51800;SDS011;37855;53.204;6.568;2022-07-23T08:25:29;1.98;;;0.70;;
51800;SDS011;37855;53.204;6.568;2022-07-23T08:27:57;1.90;;;0.60;;
51800;SDS011;37855;53.204;6.568;2022-07-23T08:30:24;2.92;;;0.60;;
51800;SDS011;37855;53.204;6.568;2022-07-23T08:32:52;1.45;;;0.60;;
51800;SDS011;37855;53.204;6.568;2022-07-23T08:35:23;1.30;;;0.52;;
51800;SDS011;37855;53.204;6.568;2022-07-23T08:37:50;4.03;;;0.60;;
51800;SDS011;37855;53.204;6.568;2022-07-23T08:40:16;2.22;;;0.70;;
51800;SDS011;37855;53.204;6.568;2022-07-23T08:42:42;4.88;;;0.70;;
51800;SDS011;37855;53.204;6.568;2022-07-23T08:45:09;1.65;;;0.60;;
51800;SDS011;37855;53.204;6.568;2022-07-23T08:47:36;2.78;;;0.70;;
51800;SDS011;37855;53.204;6.568;2022-07-23T08:50:03;2.22;;;0.70;;
51800;SDS011;37855;53.204;6.568;2022-07-23T08:52:30;5.65;;;0.88;;
51800;SDS011;37855;53.204;6.568;2022-07-23T08:54:56;2.00;;;0.70;;
51800;SDS011;37855;53.204;6.568;2022-07-23T08:57:22;2.92;;;0.70;;
51800;SDS011;37855;53.204;6.568;2022-07-23T08:59:48;4.95;;;0.80;;
51800;SDS011;37855;53.204;6.568;2022-07-23T09:02:14;2.47;;;0.63;;
51800;SDS011;37855;53.204;6.568;2022-07-23T09:04:39;2.28;;;0.63;;
51800;SDS011;37855;53.204;6.568;2022-07-23T09:07:06;3.55;;;0.63;;
51800;SDS011;37855;53.204;6.568;2022-07-23T09:09:33;1.85;;;0.70;;
51800;SDS011;37855;53.204;6.568;2022-07-23T09:12:05;3.95;;;0.88;;
51800;SDS011;37855;53.204;6.568;2022-07-23T09:14:54;1.50;;;0.70;;
51800;SDS011;37855;53.204;6.568;2022-07-23T09:17:19;2.05;;;0.70;;
51800;SDS011;37855;53.204;6.568;2022-07-23T09:19:46;2.45;;;0.80;;
51800;SDS011;37855;53.204;6.568;2022-07-23T09:22:16;4.47;;;0.80;;
51800;SDS011;37855;53.204;6.568;2022-07-23T09:25:04;7.75;;;0.93;;
51800;SDS011;37855;53.204;6.568;2022-07-23T09:27:58;3.88;;;0.70;;
51800;SDS011;37855;53.204;6.568;2022-07-23T09:30:29;3.38;;;0.68;;
51800;SDS011;37855;53.204;6.568;2022-07-23T09:35:45;4.03;;;0.93;;
51800;SDS011;37855;53.204;6.568;2022-07-23T09:38:17;2.55;;;1.13;;
51800;SDS011;37855;53.204;6.568;2022-07-23T09:41:05;5.50;;;0.90;;
51800;SDS011;37855;53.204;6.568;2022-07-23T09:43:34;3.40;;;0.77;;
51800;SDS011;37855;53.204;6.568;2022-07-23T09:48:52;2.63;;;0.80;;
51800;SDS011;37855;53.204;6.568;2022-07-23T09:51:21;3.10;;;0.73;;
51800;SDS011;37855;53.204;6.568;2022-07-23T09:53:51;2.17;;;0.60;;
51800;SDS011;37855;53.204;6.568;2022-07-23T09:56:17;2.17;;;0.70;;
51800;SDS011;37855;53.204;6.568;2022-07-23T09:58:45;3.08;;;0.75;;
51800;SDS011;37855;53.204;6.568;2022-07-23T10:01:14;5.20;;;0.80;;
51800;SDS011;37855;53.204;6.568;2022-07-23T10:03:41;4.13;;;0.80;;
51800;SDS011;37855;53.204;6.568;2022-07-23T10:06:08;2.67;;;0.70;;
51800;SDS011;37855;53.204;6.568;2022-07-23T10:08:35;4.07;;;0.70;;
51800;SDS011;37855;53.204;6.568;2022-07-23T10:11:03;5.10;;;0.82;;
51800;SDS011;37855;53.204;6.568;2022-07-23T10:13:29;7.07;;;1.00;;
51800;SDS011;37855;53.204;6.568;2022-07-23T10:16:13;3.97;;;0.63;;
51800;SDS011;37855;53.204;6.568;2022-07-23T10:18:39;4.43;;;0.90;;
51800;SDS011;37855;53.204;6.568;2022-07-23T10:21:06;5.13;;;0.95;;
51800;SDS011;37855;53.204;6.568;2022-07-23T10:29:23;5.45;;;1.08;;
51800;SDS011;37855;53.204;6.568;2022-07-23T10:35:15;4.57;;;1.10;;
51800;SDS011;37855;53.204;6.568;2022-07-23T10:37:51;2.58;;;0.90;;
51800;SDS011;37855;53.204;6.568;2022-07-23T10:40:24;5.00;;;1.10;;
51800;SDS011;37855;53.204;6.568;2022-07-23T10:42:51;5.10;;;1.10;;
51800;SDS011;37855;53.204;6.568;2022-07-23T10:45:29;3.60;;;0.85;;
51800;SDS011;37855;53.204;6.568;2022-07-23T10:47:55;4.65;;;1.00;;
51800;SDS011;37855;53.204;6.568;2022-07-23T10:50:36;2.92;;;0.90;;
51800;SDS011;37855;53.204;6.568;2022-07-23T10:57:59;5.07;;;1.05;;
51800;SDS011;37855;53.204;6.568;2022-07-23T11:00:26;2.65;;;0.93;;
51800;SDS011;37855;53.204;6.568;2022-07-23T11:02:58;4.30;;;1.00;;
51800;SDS011;37855;53.204;6.568;2022-07-23T11:05:44;2.97;;;0.82;;
51800;SDS011;37855;53.204;6.568;2022-07-23T11:21:41;2.53;;;0.93;;
51800;SDS011;37855;53.204;6.568;2022-07-23T11:32:08;2.45;;;1.00;;
51800;SDS011;37855;53.204;6.568;2022-07-23T11:34:44;2.85;;;1.05;;
51800;SDS011;37855;53.204;6.568;2022-07-23T11:40:13;5.10;;;1.20;;
51800;SDS011;37855;53.204;6.568;2022-07-23T11:42:52;4.05;;;1.30;;
51800;SDS011;37855;53.204;6.568;2022-07-23T11:45:24;4.68;;;1.10;;
51800;SDS011;37855;53.204;6.568;2022-07-23T11:48:04;4.63;;;1.27;;
51800;SDS011;37855;53.204;6.568;2022-07-23T11:50:32;2.20;;;1.35;;
51800;SDS011;37855;53.204;6.568;2022-07-23T11:52:58;3.88;;;1.30;;
51800;SDS011;37855;53.204;6.568;2022-07-23T11:55:24;5.70;;;1.30;;
51800;SDS011;37855;53.204;6.568;2022-07-23T11:57:53;5.60;;;1.10;;
51800;SDS011;37855;53.204;6.568;2022-07-23T12:00:22;3.85;;;1.50;;
51800;SDS011;37855;53.204;6.568;2022-07-23T12:02:53;9.05;;;1.50;;
51800;SDS011;37855;53.204;6.568;2022-07-23T12:05:25;5.47;;;1.30;;
51800;SDS011;37855;53.204;6.568;2022-07-23T12:07:59;11.40;;;1.97;;
51800;SDS011;37855;53.204;6.568;2022-07-23T12:10:41;12.77;;;2.28;;
51800;SDS011;37855;53.204;6.568;2022-07-23T12:15:48;5.93;;;1.60;;
51800;SDS011;37855;53.204;6.568;2022-07-23T12:18:16;14.68;;;2.72;;
51800;SDS011;37855;53.204;6.568;2022-07-23T12:20:47;9.85;;;1.77;;
51800;SDS011;37855;53.204;6.568;2022-07-23T12:23:15;5.47;;;1.35;;
51800;SDS011;37855;53.204;6.568;2022-07-23T12:25:43;4.88;;;1.40;;
51800;SDS011;37855;53.204;6.568;2022-07-23T12:28:11;4.65;;;1.52;;
51800;SDS011;37855;53.204;6.568;2022-07-23T12:30:43;3.08;;;1.23;;
51800;SDS011;37855;53.204;6.568;2022-07-23T12:33:29;4.35;;;1.25;;
51800;SDS011;37855;53.204;6.568;2022-07-23T12:35:59;3.70;;;1.20;;
51800;SDS011;37855;53.204;6.568;2022-07-23T12:38:27;3.10;;;1.00;;
51800;SDS011;37855;53.204;6.568;2022-07-23T12:40:54;5.93;;;1.30;;
51800;SDS011;37855;53.204;6.568;2022-07-23T12:43:24;2.78;;;1.25;;
51800;SDS011;37855;53.204;6.568;2022-07-23T12:46:05;4.85;;;1.42;;
51800;SDS011;37855;53.204;6.568;2022-07-23T12:48:35;5.03;;;1.35;;
51800;SDS011;37855;53.204;6.568;2022-07-23T12:56:26;2.97;;;1.10;;
51800;SDS011;37855;53.204;6.568;2022-07-23T12:58:55;3.15;;;1.15;;
51800;SDS011;37855;53.204;6.568;2022-07-23T13:01:30;2.60;;;1.00;;
51800;SDS011;37855;53.204;6.568;2022-07-23T13:06:41;3.90;;;1.33;;
51800;SDS011;37855;53.204;6.568;2022-07-23T13:09:09;3.80;;;1.50;;
51800;SDS011;37855;53.204;6.568;2022-07-23T13:11:37;2.85;;;1.20;;
51800;SDS011;37855;53.204;6.568;2022-07-23T13:14:03;3.78;;;1.13;;
51800;SDS011;37855;53.204;6.568;2022-07-23T13:16:30;3.22;;;1.10;;
51800;SDS011;37855;53.204;6.568;2022-07-23T13:18:57;4.25;;;1.00;;
51800;SDS011;37855;53.204;6.568;2022-07-23T13:21:23;6.55;;;1.30;;
51800;SDS011;37855;53.204;6.568;2022-07-23T13:23:49;4.97;;;1.40;;
51800;SDS011;37855;53.204;6.568;2022-07-23T13:26:16;5.60;;;1.30;;
51800;SDS011;37855;53.204;6.568;2022-07-23T13:28:42;2.78;;;1.17;;
51800;SDS011;37855;53.204;6.568;2022-07-23T13:31:08;4.20;;;1.10;;
51800;SDS011;37855;53.204;6.568;2022-07-23T13:33:34;5.60;;;1.33;;
51800;SDS011;37855;53.204;6.568;2022-07-23T13:35:59;2.88;;;1.10;;
51800;SDS011;37855;53.204;6.568;2022-07-23T13:38:25;4.40;;;1.15;;
51800;SDS011;37855;53.204;6.568;2022-07-23T13:40:52;5.90;;;1.30;;
51800;SDS011;37855;53.204;6.568;2022-07-23T13:43:19;3.13;;;1.00;;
51800;SDS011;37855;53.204;6.568;2022-07-23T13:45:46;3.55;;;1.13;;
51800;SDS011;37855;53.204;6.568;2022-07-23T13:48:13;2.15;;;0.85;;
51800;SDS011;37855;53.204;6.568;2022-07-23T13:50:39;3.58;;;1.00;;
51800;SDS011;37855;53.204;6.568;2022-07-23T13:53:08;4.47;;;1.20;;
51800;SDS011;37855;53.204;6.568;2022-07-23T13:55:36;2.22;;;1.10;;
51800;SDS011;37855;53.204;6.568;2022-07-23T13:58:02;6.30;;;1.40;;
51800;SDS011;37855;53.204;6.568;2022-07-23T14:00:29;4.30;;;1.30;;
51800;SDS011;37855;53.204;6.568;2022-07-23T14:02:56;2.90;;;1.23;;
51800;SDS011;37855;53.204;6.568;2022-07-23T14:05:22;2.90;;;1.25;;
51800;SDS011;37855;53.204;6.568;2022-07-23T14:07:49;5.07;;;1.33;;
51800;SDS011;37855;53.204;6.568;2022-07-23T14:10:17;3.30;;;1.50;;
51800;SDS011;37855;53.204;6.568;2022-07-23T14:12:44;2.88;;;1.20;;
51800;SDS011;37855;53.204;6.568;2022-07-23T14:15:11;5.70;;;1.27;;
51800;SDS011;37855;53.204;6.568;2022-07-23T14:17:38;6.05;;;1.30;;
51800;SDS011;37855;53.204;6.568;2022-07-23T14:20:06;3.70;;;1.20;;
51800;SDS011;37855;53.204;6.568;2022-07-23T14:22:33;4.78;;;1.27;;
51800;SDS011;37855;53.204;6.568;2022-07-23T14:24:59;2.85;;;1.10;;
51800;SDS011;37855;53.204;6.568;2022-07-23T14:27:26;3.72;;;1.25;;
51800;SDS011;37855;53.204;6.568;2022-07-23T14:29:52;2.80;;;1.20;;
51800;SDS011;37855;53.204;6.568;2022-07-23T14:32:19;4.82;;;1.20;;
51800;SDS011;37855;53.204;6.568;2022-07-23T14:34:44;4.07;;;1.10;;
51800;SDS011;37855;53.204;6.568;2022-07-23T14:37:10;3.95;;;1.30;;
51800;SDS011;37855;53.204;6.568;2022-07-23T14:39:37;4.20;;;1.20;;
51800;SDS011;37855;53.204;6.568;2022-07-23T14:42:03;3.58;;;1.30;;
51800;SDS011;37855;53.204;6.568;2022-07-23T14:44:29;3.28;;;1.40;;
51800;SDS011;37855;53.204;6.568;2022-07-23T14:46:55;3.05;;;1.40;;
51800;SDS011;37855;53.204;6.568;2022-07-23T14:49:21;4.25;;;1.40;;
51800;SDS011;37855;53.204;6.568;2022-07-23T14:51:46;5.82;;;1.75;;
51800;SDS011;37855;53.204;6.568;2022-07-23T14:54:12;5.30;;;1.10;;
51800;SDS011;37855;53.204;6.568;2022-07-23T14:56:39;3.72;;;1.38;;
51800;SDS011;37855;53.204;6.568;2022-07-23T14:59:05;4.05;;;1.25;;
51800;SDS011;37855;53.204;6.568;2022-07-23T15:01:31;5.00;;;1.30;;
51800;SDS011;37855;53.204;6.568;2022-07-23T15:03:57;2.60;;;1.17;;
51800;SDS011;37855;53.204;6.568;2022-07-23T15:06:23;3.63;;;1.10;;
51800;SDS011;37855;53.204;6.568;2022-07-23T15:08:49;3.15;;;1.20;;
51800;SDS011;37855;53.204;6.568;2022-07-23T15:11:14;3.30;;;1.17;;
51800;SDS011;37855;53.204;6.568;2022-07-23T15:13:40;6.20;;;1.40;;
51800;SDS011;37855;53.204;6.568;2022-07-23T15:16:06;3.38;;;1.27;;
51800;SDS011;37855;53.204;6.568;2022-07-23T15:18:32;2.15;;;1.13;;
51800;SDS011;37855;53.204;6.568;2022-07-23T15:20:58;4.85;;;1.33;;
51800;SDS011;37855;53.204;6.568;2022-07-23T15:23:25;3.63;;;1.20;;
51800;SDS011;37855;53.204;6.568;2022-07-23T15:25:55;3.67;;;1.40;;
51800;SDS011;37855;53.204;6.568;2022-07-23T15:28:21;3.25;;;1.30;;
51800;SDS011;37855;53.204;6.568;2022-07-23T15:30:47;2.95;;;1.20;;
51800;SDS011;37855;53.204;6.568;2022-07-23T15:33:14;3.80;;;1.83;;
51800;SDS011;37855;53.204;6.568;2022-07-23T15:35:39;2.47;;;1.30;;
51800;SDS011;37855;53.204;6.568;2022-07-23T15:38:05;4.13;;;1.25;;
51800;SDS011;37855;53.204;6.568;2022-07-23T15:40:31;4.90;;;1.20;;